createdAt,value
2022-09-26T00:01:22.983Z,5.40
2022-09-26T00:03:52.042Z,3.42
2022-09-26T00:06:20.349Z,4.53
2022-09-26T00:08:48.546Z,3.13
2022-09-26T00:11:17.743Z,4.20
2022-09-26T00:13:45.276Z,4.50
2022-09-26T00:16:15.293Z,4.18
2022-09-26T00:18:42.882Z,3.97
2022-09-26T00:21:14.609Z,3.70
2022-09-26T00:23:42.486Z,3.97
2022-09-26T00:26:11.216Z,4.45
2022-09-26T00:28:38.815Z,4.57
2022-09-26T00:31:07.332Z,4.57
2022-09-26T00:33:35.019Z,9.05
2022-09-26T00:36:02.982Z,4.65
2022-09-26T00:38:30.840Z,4.40
2022-09-26T00:40:58.976Z,4.47
2022-09-26T00:43:29.636Z,5.30
2022-09-26T00:46:04.190Z,4.70
2022-09-26T00:48:32.422Z,4.80
2022-09-26T00:51:00.409Z,4.32
2022-09-26T00:53:32.525Z,7.05
2022-09-26T00:56:03.604Z,4.15
2022-09-26T00:58:43.842Z,4.60
2022-09-26T01:01:12.094Z,6.50
2022-09-26T01:03:40.508Z,5.43
2022-09-26T01:06:08.176Z,4.28
2022-09-26T01:08:39.335Z,5.63
2022-09-26T01:11:07.012Z,4.50
2022-09-26T01:13:36.536Z,4.30
2022-09-26T01:16:04.178Z,4.20
2022-09-26T01:18:32.010Z,5.10
2022-09-26T01:21:05.618Z,5.47
2022-09-26T01:23:43.253Z,4.70
2022-09-26T01:26:13.668Z,5.45
2022-09-26T01:28:53.573Z,3.80
2022-09-26T01:31:25.073Z,3.95
2022-09-26T01:33:55.633Z,4.18
2022-09-26T01:36:40.778Z,4.90
2022-09-26T01:39:08.369Z,5.30
2022-09-26T01:41:41.677Z,5.03
2022-09-26T01:44:24.272Z,4.03
2022-09-26T01:46:57.555Z,4.32
2022-09-26T01:49:28.094Z,4.28
2022-09-26T01:52:03.691Z,7.32
2022-09-26T01:54:35.835Z,5.47
2022-09-26T01:57:05.944Z,5.60
2022-09-26T01:59:35.917Z,5.57
2022-09-26T02:02:11.134Z,5.73
2022-09-26T02:04:40.143Z,5.78
2022-09-26T02:07:17.043Z,5.05
2022-09-26T02:09:59.071Z,6.20
2022-09-26T02:12:32.701Z,6.35
2022-09-26T02:15:02.613Z,5.78
2022-09-26T02:17:34.091Z,5.90
2022-09-26T02:20:05.135Z,8.85
2022-09-26T02:22:34.087Z,5.22
2022-09-26T02:25:02.455Z,7.38
2022-09-26T02:27:30.244Z,5.78
2022-09-26T02:29:58.105Z,6.57
2022-09-26T02:32:29.839Z,5.80
2022-09-26T02:34:58.328Z,5.78
2022-09-26T02:37:28.811Z,6.63
2022-09-26T02:39:56.711Z,7.00
2022-09-26T02:42:31.336Z,6.68
2022-09-26T02:45:02.555Z,5.93
2022-09-26T02:47:36.180Z,7.65
2022-09-26T02:50:25.341Z,6.20
2022-09-26T02:53:17.011Z,14.13
2022-09-26T02:55:53.844Z,6.40
2022-09-26T02:58:22.053Z,5.65
2022-09-26T03:00:53.290Z,6.80
2022-09-26T03:03:27.170Z,8.57
2022-09-26T03:05:58.427Z,10.05
2022-09-26T03:08:27.659Z,8.05
2022-09-26T03:10:57.303Z,7.47
2022-09-26T03:13:26.424Z,9.43
2022-09-26T03:15:56.728Z,8.60
2022-09-26T03:18:29.679Z,12.30
2022-09-26T03:20:57.286Z,9.48
2022-09-26T03:23:26.761Z,8.10
2022-09-26T03:26:04.898Z,9.63
2022-09-26T03:28:37.612Z,7.28
2022-09-26T03:31:05.855Z,7.93
2022-09-26T03:33:44.604Z,8.75
2022-09-26T03:36:12.968Z,9.73
2022-09-26T03:38:40.772Z,8.60
2022-09-26T03:41:24.210Z,8.90
2022-09-26T03:44:07.272Z,8.48
2022-09-26T03:47:04.210Z,10.30
2022-09-26T03:49:35.136Z,10.30
2022-09-26T03:52:03.294Z,13.85
2022-09-26T03:54:31.092Z,11.20
2022-09-26T03:56:58.612Z,9.35
2022-09-26T03:59:26.132Z,11.38
2022-09-26T04:01:54.448Z,10.13
2022-09-26T04:04:22.149Z,12.15
2022-09-26T04:06:51.179Z,11.63
2022-09-26T04:09:19.150Z,10.38
2022-09-26T04:11:50.593Z,12.45
2022-09-26T04:14:18.367Z,11.18
2022-09-26T04:16:49.395Z,11.50
2022-09-26T04:19:37.201Z,12.95
2022-09-26T04:22:07.984Z,13.20
2022-09-26T04:24:35.635Z,13.68
2022-09-26T04:27:03.240Z,11.70
2022-09-26T04:29:31.512Z,13.73
2022-09-26T04:32:07.123Z,13.07
2022-09-26T04:34:45.275Z,12.93
2022-09-26T04:37:13.223Z,13.52
2022-09-26T04:39:41.982Z,12.95
2022-09-26T04:42:09.979Z,10.88
2022-09-26T04:44:37.567Z,11.00
2022-09-26T04:47:06.172Z,13.18
2022-09-26T04:49:53.599Z,14.05
2022-09-26T04:52:21.141Z,13.18
2022-09-26T04:54:49.000Z,13.68
2022-09-26T04:57:19.669Z,13.38
2022-09-26T04:59:47.731Z,12.47
2022-09-26T05:02:16.145Z,10.68
2022-09-26T05:04:44.130Z,10.32
2022-09-26T05:07:12.419Z,11.98
2022-09-26T05:09:40.424Z,9.90
2022-09-26T05:12:13.388Z,10.75
2022-09-26T05:14:44.570Z,9.77
2022-09-26T05:17:12.105Z,9.63
2022-09-26T05:19:42.915Z,8.75
2022-09-26T05:22:26.195Z,7.70
2022-09-26T05:25:13.024Z,8.02
2022-09-26T05:27:40.586Z,13.60
2022-09-26T05:30:08.487Z,7.72
2022-09-26T05:32:36.129Z,8.45
2022-09-26T05:35:05.546Z,8.60
2022-09-26T05:37:36.841Z,10.55
2022-09-26T05:40:23.226Z,10.20
2022-09-26T05:42:53.835Z,10.10
2022-09-26T05:45:23.019Z,9.98
2022-09-26T05:47:50.624Z,10.45
2022-09-26T05:50:22.211Z,8.45
2022-09-26T05:52:50.907Z,9.90
2022-09-26T05:55:24.209Z,9.60
2022-09-26T05:58:10.846Z,11.52
2022-09-26T06:01:04.367Z,10.75
2022-09-26T06:03:37.013Z,11.00
2022-09-26T06:06:11.029Z,11.48
2022-09-26T06:08:39.692Z,12.13
2022-09-26T06:11:30.518Z,12.15
2022-09-26T06:14:00.434Z,12.43
2022-09-26T06:16:28.395Z,13.88
2022-09-26T06:18:56.282Z,14.73
2022-09-26T06:21:24.543Z,12.88
2022-09-26T06:24:04.956Z,14.05
2022-09-26T06:26:32.828Z,15.18
2022-09-26T06:29:00.732Z,13.80
2022-09-26T06:31:30.857Z,14.63
2022-09-26T06:34:12.730Z,16.20
2022-09-26T06:36:47.133Z,13.70
2022-09-26T06:39:15.177Z,16.27
2022-09-26T06:41:44.539Z,15.70
2022-09-26T06:44:35.613Z,17.17
2022-09-26T06:47:13.130Z,14.77
2022-09-26T06:49:40.882Z,17.05
2022-09-26T06:52:14.028Z,15.63
2022-09-26T06:54:41.992Z,14.43
2022-09-26T06:57:15.066Z,19.42
2022-09-26T06:59:42.971Z,15.13
2022-09-26T07:02:31.183Z,15.75
2022-09-26T07:05:25.154Z,15.45
2022-09-26T07:07:54.924Z,15.90
2022-09-26T07:10:28.064Z,17.08
2022-09-26T07:13:09.342Z,15.35
2022-09-26T07:15:37.438Z,16.67
2022-09-26T07:18:25.846Z,15.80
2022-09-26T07:21:17.077Z,15.15
2022-09-26T07:23:50.270Z,14.60
2022-09-26T07:26:20.826Z,14.20
2022-09-26T07:28:53.647Z,16.50
2022-09-26T07:31:26.152Z,16.42
2022-09-26T07:34:08.501Z,14.50
2022-09-26T07:36:39.595Z,15.32
2022-09-26T07:39:07.878Z,13.57
2022-09-26T07:41:35.599Z,14.27
2022-09-26T07:47:09.763Z,14.98
2022-09-26T07:49:55.838Z,14.98
2022-09-26T07:52:35.730Z,13.93
2022-09-26T07:55:20.021Z,13.32
2022-09-26T07:57:59.554Z,12.50
2022-09-26T08:00:47.369Z,11.48
2022-09-26T08:03:27.301Z,13.45
2022-09-26T08:06:00.318Z,10.57
2022-09-26T08:08:29.608Z,10.38
2022-09-26T08:11:03.653Z,9.80
2022-09-26T08:13:37.669Z,10.38
2022-09-26T08:16:11.601Z,9.43
2022-09-26T08:18:43.664Z,10.35
2022-09-26T08:21:11.311Z,9.07
2022-09-26T08:23:39.191Z,9.73
2022-09-26T08:26:44.621Z,8.20
2022-09-26T08:29:17.846Z,8.77
2022-09-26T08:31:47.891Z,8.95
2022-09-26T08:34:15.807Z,5.60
2022-09-26T08:36:46.219Z,6.97
2022-09-26T08:39:36.969Z,6.90
2022-09-26T08:42:47.747Z,8.88
2022-09-26T08:45:51.388Z,9.02
2022-09-26T08:48:29.332Z,7.50
2022-09-26T08:53:47.980Z,6.72
2022-09-26T08:56:28.711Z,5.65
2022-09-26T08:58:57.327Z,6.85
2022-09-26T09:01:30.484Z,5.47
2022-09-26T09:04:27.075Z,5.13
2022-09-26T09:06:58.840Z,6.13
2022-09-26T09:09:26.472Z,7.00
2022-09-26T09:12:19.546Z,7.75
2022-09-26T09:15:26.809Z,4.85
2022-09-26T09:18:30.004Z,5.07
2022-09-26T09:21:38.023Z,4.28
2022-09-26T09:24:24.475Z,3.45
2022-09-26T09:29:49.575Z,4.43
2022-09-26T09:32:57.410Z,3.45
2022-09-26T09:35:57.400Z,5.68
2022-09-26T09:38:38.587Z,2.95
2022-09-26T09:41:24.025Z,3.47
2022-09-26T09:43:56.121Z,3.95
2022-09-26T09:46:28.721Z,4.07
2022-09-26T09:49:00.898Z,2.90
2022-09-26T09:51:38.458Z,2.65
2022-09-26T09:54:18.830Z,3.55
2022-09-26T09:57:08.033Z,2.00
2022-09-26T09:59:58.964Z,2.42
2022-09-26T10:02:40.146Z,3.13
2022-09-26T10:05:17.909Z,3.40
2022-09-26T10:07:47.640Z,3.72
2022-09-26T10:10:41.922Z,3.10
2022-09-26T10:13:49.265Z,2.83
2022-09-26T10:16:27.763Z,2.75
2022-09-26T10:19:09.265Z,2.10
2022-09-26T10:21:40.967Z,5.40
2022-09-26T10:24:22.225Z,2.53
2022-09-26T10:26:51.394Z,3.33
2022-09-26T10:29:36.674Z,2.60
2022-09-26T10:32:06.482Z,2.20
2022-09-26T10:34:35.718Z,2.55
2022-09-26T10:37:22.880Z,2.55
2022-09-26T10:40:15.420Z,4.30
2022-09-26T10:42:58.716Z,5.35
2022-09-26T10:45:35.703Z,3.22
2022-09-26T10:48:49.037Z,2.50
2022-09-26T10:51:32.252Z,4.43
2022-09-26T10:54:07.226Z,3.40
2022-09-26T10:56:37.791Z,3.75
2022-09-26T10:59:08.896Z,4.55
2022-09-26T11:01:45.756Z,3.33
2022-09-26T11:04:40.825Z,5.82
2022-09-26T11:07:49.510Z,3.80
2022-09-26T11:10:34.277Z,5.03
2022-09-26T11:13:32.141Z,2.63
2022-09-26T11:16:12.984Z,3.65
2022-09-26T11:18:43.036Z,5.55
2022-09-26T11:21:28.235Z,3.13
2022-09-26T11:24:02.873Z,4.18
2022-09-26T11:26:44.979Z,4.68
2022-09-26T11:29:20.996Z,3.80
2022-09-26T11:32:05.546Z,3.60
2022-09-26T11:35:06.047Z,2.67
2022-09-26T11:37:42.047Z,2.88
2022-09-26T11:40:42.299Z,3.65
2022-09-26T11:43:18.839Z,2.53
2022-09-26T11:46:03.893Z,2.80
2022-09-26T11:49:02.211Z,2.60
2022-09-26T11:52:14.451Z,2.35
2022-09-26T11:54:47.824Z,5.13
2022-09-26T11:57:15.331Z,2.20
2022-09-26T12:00:03.448Z,2.47
2022-09-26T12:02:57.409Z,2.20
2022-09-26T12:05:44.124Z,2.40
2022-09-26T12:08:23.661Z,3.13
2022-09-26T12:10:56.598Z,2.63
2022-09-26T12:13:29.740Z,3.80
2022-09-26T12:16:03.709Z,3.92
2022-09-26T12:18:53.346Z,2.47
2022-09-26T12:21:29.899Z,3.05
2022-09-26T12:24:06.062Z,4.05
2022-09-26T12:26:39.840Z,3.35
2022-09-26T12:29:15.755Z,2.97
2022-09-26T12:31:54.545Z,3.38
2022-09-26T12:34:41.152Z,2.45
2022-09-26T12:37:17.940Z,2.97
2022-09-26T12:40:17.893Z,2.28
2022-09-26T12:42:45.650Z,2.42
2022-09-26T12:45:19.325Z,3.80
2022-09-26T12:48:07.350Z,2.13
2022-09-26T12:50:47.554Z,2.05
2022-09-26T12:53:19.211Z,2.58
2022-09-26T12:55:52.736Z,2.40
2022-09-26T12:58:31.918Z,4.10
2022-09-26T13:01:12.737Z,4.22
2022-09-26T13:03:50.451Z,2.40
2022-09-26T13:06:27.328Z,2.92
2022-09-26T13:08:57.274Z,2.08
2022-09-26T13:11:32.706Z,2.40
2022-09-26T13:14:12.351Z,2.08
2022-09-26T13:16:46.595Z,2.60
2022-09-26T13:19:23.659Z,1.98
2022-09-26T13:21:55.196Z,2.20
2022-09-26T13:24:25.291Z,1.45
2022-09-26T13:27:00.553Z,4.00
2022-09-26T13:29:31.573Z,3.95
2022-09-26T13:32:11.080Z,4.03
2022-09-26T13:34:45.208Z,1.55
2022-09-26T13:37:23.933Z,1.80
2022-09-26T13:39:55.116Z,1.73
2022-09-26T13:42:42.955Z,1.90
2022-09-26T13:45:23.558Z,2.58
2022-09-26T13:48:00.174Z,4.00
2022-09-26T13:50:48.506Z,2.63
2022-09-26T13:53:21.210Z,2.75
2022-09-26T13:56:07.661Z,2.00
2022-09-26T13:58:41.218Z,2.25
2022-09-26T14:01:25.016Z,1.85
2022-09-26T14:04:12.624Z,2.80
2022-09-26T14:07:00.432Z,2.78
2022-09-26T14:09:40.549Z,3.38
2022-09-26T14:12:19.641Z,1.95
2022-09-26T14:14:51.451Z,2.95
2022-09-26T14:17:37.534Z,2.72
2022-09-26T14:20:05.695Z,2.97
2022-09-26T14:22:34.971Z,1.90
2022-09-26T14:25:05.360Z,2.03
2022-09-26T14:27:40.706Z,3.83
2022-09-26T14:30:08.262Z,2.13
2022-09-26T14:32:37.714Z,2.80
2022-09-26T14:35:17.162Z,2.33
2022-09-26T14:37:46.550Z,1.77
2022-09-26T14:40:17.862Z,2.85
2022-09-26T14:42:45.392Z,4.20
2022-09-26T14:45:25.361Z,2.38
2022-09-26T14:48:01.084Z,3.40
2022-09-26T14:50:34.264Z,3.42
2022-09-26T14:53:20.072Z,2.05
2022-09-26T14:55:59.512Z,2.05
2022-09-26T14:58:39.667Z,2.55
2022-09-26T15:01:14.960Z,1.60
2022-09-26T15:03:43.475Z,2.90
2022-09-26T15:06:12.601Z,2.50
2022-09-26T15:08:40.635Z,1.45
2022-09-26T15:11:08.201Z,1.90
2022-09-26T15:13:55.266Z,2.88
2022-09-26T15:16:32.422Z,10.40
2022-09-26T15:19:06.734Z,1.73
2022-09-26T15:21:37.688Z,2.15
2022-09-26T15:24:22.580Z,1.50
2022-09-26T15:26:50.502Z,4.38
2022-09-26T15:29:18.175Z,2.53
2022-09-26T15:31:47.164Z,2.47
2022-09-26T15:34:16.551Z,2.28
2022-09-26T15:36:45.489Z,1.30
2022-09-26T15:39:48.630Z,2.72
2022-09-26T15:42:34.826Z,2.15
2022-09-26T15:45:02.863Z,1.85
2022-09-26T15:47:31.266Z,1.75
2022-09-26T15:50:17.295Z,3.10
2022-09-26T15:52:50.541Z,2.30
2022-09-26T15:55:23.812Z,2.22
2022-09-26T15:57:53.416Z,1.55
2022-09-26T16:00:21.291Z,1.30
2022-09-26T16:02:49.247Z,1.25
2022-09-26T16:05:17.084Z,1.20
2022-09-26T16:07:48.779Z,2.45
2022-09-26T16:10:24.886Z,1.42
2022-09-26T16:12:53.043Z,3.55
2022-09-26T16:15:23.648Z,3.15
2022-09-26T16:17:52.516Z,2.50
2022-09-26T16:20:20.755Z,2.67
2022-09-26T16:22:51.476Z,2.17
2022-09-26T16:25:19.101Z,1.98
2022-09-26T16:27:49.470Z,2.72
2022-09-26T16:30:37.506Z,2.25
2022-09-26T16:33:08.100Z,1.50
2022-09-26T16:35:37.125Z,1.65
2022-09-26T16:38:07.347Z,2.63
2022-09-26T16:40:35.963Z,2.20
2022-09-26T16:43:03.530Z,2.45
2022-09-26T16:45:32.452Z,2.35
2022-09-26T16:48:00.040Z,1.35
2022-09-26T16:50:33.078Z,1.77
2022-09-26T16:53:06.238Z,2.30
2022-09-26T16:55:36.235Z,2.45
2022-09-26T16:58:05.135Z,1.73
2022-09-26T17:00:53.542Z,3.28
2022-09-26T17:03:26.190Z,2.88
2022-09-26T17:05:57.980Z,2.90
2022-09-26T17:08:26.483Z,2.85
2022-09-26T17:10:56.187Z,2.67
2022-09-26T17:13:25.492Z,2.67
2022-09-26T17:15:55.431Z,3.33
2022-09-26T17:18:29.000Z,2.20
2022-09-26T17:20:58.825Z,1.95
2022-09-26T17:23:42.514Z,2.75
2022-09-26T17:26:19.551Z,1.58
2022-09-26T17:28:47.134Z,4.40
2022-09-26T17:31:19.666Z,3.08
2022-09-26T17:33:49.220Z,2.13
2022-09-26T17:36:27.820Z,2.78
2022-09-26T17:38:59.046Z,6.10
2022-09-26T17:41:28.944Z,4.93
2022-09-26T17:44:00.734Z,2.97
2022-09-26T17:46:28.702Z,4.63
2022-09-26T17:48:56.476Z,3.67
2022-09-26T17:51:25.233Z,3.15
2022-09-26T17:53:52.950Z,2.75
2022-09-26T17:56:20.593Z,4.30
2022-09-26T17:58:49.056Z,2.38
2022-09-26T18:01:22.114Z,3.13
2022-09-26T18:03:51.007Z,2.85
2022-09-26T18:06:19.666Z,2.80
2022-09-26T18:08:47.845Z,2.28
2022-09-26T18:11:16.690Z,4.47
2022-09-26T18:13:55.210Z,3.90
2022-09-26T18:16:23.828Z,3.00
2022-09-26T18:18:51.817Z,2.75
2022-09-26T18:21:20.268Z,3.20
2022-09-26T18:23:49.995Z,4.28
2022-09-26T18:26:25.403Z,2.63
2022-09-26T18:28:54.607Z,2.85
2022-09-26T18:31:25.659Z,4.57
2022-09-26T18:33:54.632Z,4.10
2022-09-26T18:36:22.706Z,3.38
2022-09-26T18:38:50.321Z,4.63
2022-09-26T18:41:20.702Z,3.72
2022-09-26T18:43:52.041Z,4.30
2022-09-26T18:46:19.876Z,2.20
2022-09-26T18:48:47.740Z,4.75
2022-09-26T18:51:15.455Z,3.47
2022-09-26T18:53:43.139Z,3.40
2022-09-26T18:56:30.059Z,3.13
2022-09-26T18:58:58.920Z,3.20
2022-09-26T19:01:34.213Z,4.47
2022-09-26T19:04:03.275Z,2.22
2022-09-26T19:06:36.359Z,3.33
2022-09-26T19:09:08.420Z,3.22
2022-09-26T19:11:36.186Z,1.92
2022-09-26T19:14:25.242Z,2.38
2022-09-26T19:16:53.370Z,3.13
2022-09-26T19:19:21.355Z,2.22
2022-09-26T19:21:48.935Z,2.72
2022-09-26T19:24:22.368Z,2.90
2022-09-26T19:26:55.072Z,2.28
2022-09-26T19:29:46.008Z,2.90
2022-09-26T19:32:22.206Z,2.85
2022-09-26T19:34:52.412Z,3.25
2022-09-26T19:37:20.007Z,2.97
2022-09-26T19:39:47.640Z,3.38
2022-09-26T19:42:15.682Z,3.97
2022-09-26T19:44:43.507Z,4.03
2022-09-26T19:47:22.231Z,2.95
2022-09-26T19:49:51.126Z,3.30
2022-09-26T19:52:20.318Z,5.82
2022-09-26T19:54:48.710Z,3.08
2022-09-26T19:57:16.883Z,2.88
2022-09-26T19:59:44.821Z,2.92
2022-09-26T20:02:16.285Z,3.00
2022-09-26T20:04:44.454Z,2.50
2022-09-26T20:07:13.608Z,2.55
2022-09-26T20:09:41.268Z,2.65
2022-09-26T20:12:09.237Z,2.83
2022-09-26T20:14:37.140Z,2.97
2022-09-26T20:17:24.342Z,2.95
2022-09-26T20:19:57.776Z,3.80
2022-09-26T20:22:27.390Z,3.15
2022-09-26T20:24:55.419Z,2.75
2022-09-26T20:27:24.603Z,4.22
2022-09-26T20:30:11.166Z,2.22
2022-09-26T20:32:40.627Z,2.13
2022-09-26T20:35:10.735Z,3.20
2022-09-26T20:37:39.766Z,2.65
2022-09-26T20:40:13.328Z,2.70
2022-09-26T20:42:44.468Z,3.53
2022-09-26T20:45:16.172Z,1.77
2022-09-26T20:47:47.035Z,2.63
2022-09-26T20:50:17.157Z,3.13
2022-09-26T20:52:44.933Z,2.28
2022-09-26T20:55:19.561Z,3.03
2022-09-26T20:57:47.928Z,2.15
2022-09-26T21:00:16.066Z,3.10
2022-09-26T21:02:44.620Z,2.83
2022-09-26T21:05:16.375Z,2.95
2022-09-26T21:07:44.257Z,2.40
2022-09-26T21:10:21.270Z,2.97
2022-09-26T21:12:48.862Z,2.58
2022-09-26T21:15:17.656Z,3.35
2022-09-26T21:17:46.085Z,2.13
2022-09-26T21:20:16.064Z,2.83
2022-09-26T21:22:55.702Z,2.13
2022-09-26T21:25:24.287Z,4.38
2022-09-26T21:27:53.763Z,2.67
2022-09-26T21:30:21.501Z,2.25
2022-09-26T21:32:50.658Z,6.28
2022-09-26T21:35:19.048Z,3.65
2022-09-26T21:37:48.795Z,3.45
2022-09-26T21:40:16.628Z,2.88
2022-09-26T21:42:45.972Z,2.20
2022-09-26T21:45:14.306Z,2.00
2022-09-26T21:47:41.864Z,4.50
2022-09-26T21:50:11.928Z,2.63
2022-09-26T21:52:40.974Z,2.55
2022-09-26T21:55:13.509Z,2.75
2022-09-26T21:57:43.072Z,2.25
2022-09-26T22:00:12.383Z,2.53
2022-09-26T22:02:43.331Z,3.08
2022-09-26T22:05:11.768Z,3.78
2022-09-26T22:07:39.683Z,4.40
2022-09-26T22:10:07.456Z,2.45
2022-09-26T22:12:35.382Z,4.38
2022-09-26T22:15:02.947Z,5.07
2022-09-26T22:17:30.602Z,2.33
2022-09-26T22:19:58.147Z,3.22
2022-09-26T22:22:25.903Z,2.70
2022-09-26T22:24:53.971Z,2.30
2022-09-26T22:27:21.869Z,2.92
2022-09-26T22:29:49.418Z,2.10
2022-09-26T22:32:16.988Z,2.90
2022-09-26T22:34:44.596Z,3.00
2022-09-26T22:37:12.188Z,2.13
2022-09-26T22:39:39.721Z,3.20
2022-09-26T22:42:07.481Z,2.78
2022-09-26T22:44:35.793Z,2.78
2022-09-26T22:47:03.354Z,4.13
2022-09-26T22:49:30.899Z,2.45
2022-09-26T22:51:58.505Z,2.67
2022-09-26T22:54:26.076Z,3.72
2022-09-26T22:56:53.670Z,2.63
2022-09-26T22:59:22.234Z,3.15
2022-09-26T23:01:51.547Z,3.40
2022-09-26T23:04:19.298Z,3.88
2022-09-26T23:06:46.913Z,2.92
2022-09-26T23:09:14.504Z,3.25
2022-09-26T23:11:42.197Z,3.88
2022-09-26T23:14:09.855Z,1.75
2022-09-26T23:16:38.358Z,2.30
2022-09-26T23:19:06.032Z,4.15
2022-09-26T23:21:33.605Z,2.50
2022-09-26T23:24:01.638Z,1.35
2022-09-26T23:26:31.870Z,4.88
2022-09-26T23:29:00.108Z,1.58
2022-09-26T23:31:28.542Z,3.30
2022-09-26T23:33:57.253Z,2.15
2022-09-26T23:36:25.543Z,2.20
2022-09-26T23:38:53.503Z,2.20
2022-09-26T23:41:21.050Z,2.33
2022-09-26T23:43:48.659Z,2.15
2022-09-26T23:46:16.771Z,2.30
2022-09-26T23:48:44.411Z,2.90
2022-09-26T23:51:12.045Z,2.40
2022-09-26T23:53:39.585Z,3.70
2022-09-26T23:56:11.317Z,1.70
2022-09-26T23:58:39.005Z,2.53
